EGAC/BHD METAR and TAF weather

Enter ICAO airport designator
Station Type Date Time Source
EGAC METAR 2019/08/19 11:50 UTC NOAA

EGAC 191150Z AUTO 25014KT 210V290 9999 SCT033/// BKN042/// 16/10 Q1009


Station Type Date Time Source
EGAC Decoded METAR 2019/08/19 11:50 UTC NOAA

Station name not available
Aug 19, 2019 - 07:50 AM EDT / 2019.08.19 1150 UTC
Wind: from the WSW (250 degrees) at 16 MPH (14 KT) (direction variable):0
Visibility: greater than 7 mile(s):0
Sky conditions: mostly cloudy
Temperature: 60 F (16 C)
Dew Point: 50 F (10 C)
Relative Humidity: 67%
Pressure (altimeter): 29.80 in. Hg (1009 hPa)
ob: EGAC 191150Z AUTO 25014KT 210V290 9999 SCT033/// BKN042/// 16/10 Q1009
cycle: 12

Station Type Date Time Source
EGAC TAF UTC NOAA

Error!

Example: see airport list